| time (UTC) | temp F | wind direction | speed MPH | gust MPH | rain 1hr in | rain 24hr in | rain mn in | humidity % | barometer mb |
| 20260507114823 | 43 | 265 | 0.0 | 0.0 | 0.00 | 0.00 | 0.00 | 91 | 1015.1 |
| 20260507113821 | 43 | 265 | 0.0 | 0.0 | 0.00 | 0.00 | 0.00 | 91 | 1015.0 |
| 20260507112822 | 42 | 265 | 0.0 | 0.0 | 0.00 | 0.00 | 0.00 | 91 | 1015.0 |
| 20260507111822 | 40 | 265 | 0.0 | 0.0 | 0.00 | 0.00 | 0.00 | 91 | 1015.0 |
| 20260507110820 | 40 | 265 | 0.0 | 0.0 | 0.00 | 0.00 | 0.00 | 91 | 1014.9 |
| 20260507105821 | 39 | 265 | 0.0 | 0.0 | 0.00 | 0.00 | 0.00 | 91 | 1014.7 |
| 20260507104819 | 39 | 267 | 0.0 | 0.0 | 0.00 | 0.00 | 0.00 | 90 | 1014.6 |
| 20260507104303 | 39 | 267 | 0.0 | 0.0 | 0.00 | 0.00 | 0.00 | 90 | 1014.5 |
| 20260507103254 | 39 | 267 | 0.0 | 0.0 | 0.00 | 0.00 | 0.00 | 90 | 1014.4 |
| 20260507101816 | 39 | 267 | 0.0 | 0.0 | 0.00 | 0.00 | 0.00 | 90 | 1014.4 |
| 20260507100817 | 39 | 267 | 0.0 | 0.0 | 0.00 | 0.00 | 0.00 | 90 | 1014.4 |
| 20260507100259 | 39 | 267 | 0.0 | 0.0 | 0.00 | 0.00 | 0.00 | 90 | 1014.4 |
| 20260507094816 | 39 | 267 | 0.0 | 0.0 | 0.00 | 0.00 | 0.00 | 90 | 1014.4 |
| 20260507093816 | 40 | 267 | 0.0 | 0.0 | 0.00 | 0.00 | 0.00 | 90 | 1014.5 |
| 20260507092816 | 40 | 267 | 0.0 | 0.0 | 0.00 | 0.00 | 0.00 | 90 | 1014.4 |
| 20260507091816 | 40 | 267 | 0.0 | 0.0 | 0.00 | 0.00 | 0.00 | 90 | 1014.2 |
| 20260507090816 | 40 | 267 | 0.0 | 0.0 | 0.00 | 0.00 | 0.00 | 90 | 1014.2 |
| 20260507085817 | 40 | 267 | 0.0 | 0.0 | 0.00 | 0.00 | 0.00 | 90 | 1014.2 |
| 20260507085311 | 40 | 267 | 0.0 | 0.0 | 0.00 | 0.00 | 0.00 | 90 | 1014.0 |
| 20260507083816 | 40 | 267 | 0.0 | 0.0 | 0.00 | 0.00 | 0.00 | 89 | 1014.0 |
| 20260507082815 | 41 | 267 | 0.0 | 0.0 | 0.00 | 0.01 | 0.00 | 89 | 1014.0 |
| 20260507081812 | 41 | 267 | 0.0 | 0.0 | 0.00 | 0.01 | 0.00 | 89 | 1013.9 |
| 20260507080813 | 41 | 267 | 0.0 | 0.0 | 0.00 | 0.01 | 0.00 | 89 | 1013.7 |
| 20260507075811 | 41 | 267 | 0.0 | 0.0 | 0.00 | 0.01 | 0.00 | 89 | 1013.7 |
| 20260507074811 | 42 | 267 | 0.0 | 0.0 | 0.00 | 0.01 | 0.00 | 89 | 1013.7 |
| 20260507073809 | 42 | 267 | 0.0 | 0.0 | 0.00 | 0.01 | 0.00 | 89 | 1013.7 |
| 20260507072809 | 42 | 267 | 0.0 | 0.0 | 0.00 | 0.03 | 0.00 | 89 | 1013.7 |
| 20260507071811 | 42 | 267 | 0.0 | 0.0 | 0.00 | 0.05 | 0.00 | 88 | 1013.7 |
| 20260507070809 | 42 | 267 | 0.0 | 0.0 | 0.00 | 0.06 | 0.00 | 89 | 1013.7 |
| 20260507065810 | 42 | 267 | 0.0 | 0.0 | 0.00 | 0.08 | 0.00 | 88 | 1013.6 |
| 20260507064807 | 43 | 267 | 0.0 | 0.0 | 0.00 | 0.09 | 0.00 | 88 | 1013.9 |
| 20260507063810 | 43 | 267 | 0.0 | 0.0 | 0.00 | 0.09 | 0.00 | 88 | 1014.0 |
| 20260507062809 | 43 | 267 | 0.0 | 0.0 | 0.00 | 0.10 | 0.00 | 88 | 1014.1 |
| 20260507061809 | 43 | 267 | 0.0 | 0.0 | 0.00 | 0.10 | 0.00 | 88 | 1014.0 |
| 20260507060808 | 43 | 267 | 0.0 | 0.0 | 0.00 | 0.11 | 0.00 | 87 | 1013.9 |
| 20260507060729 | 43 | 267 | 0.0 | 0.0 | 0.00 | 0.12 | 0.00 | 87 | 1013.9 |
| 20260507054809 | 43 | 267 | 0.0 | 0.0 | 0.00 | 0.13 | 0.00 | 87 | 1014.0 |
| 20260507053808 | 44 | 267 | 0.0 | 0.0 | 0.00 | 0.15 | 0.00 | 87 | 1014.0 |
| 20260507052808 | 44 | 267 | 0.0 | 0.0 | 0.00 | 0.16 | 0.00 | 87 | 1014.1 |
| 20260507052243 | 44 | 267 | 0.0 | 0.0 | 0.00 | 0.17 | 0.00 | 86 | 1014.0 |
| 20260507050805 | 44 | 267 | 0.0 | 0.0 | 0.00 | 0.22 | 0.00 | 86 | 1014.1 |
| 20260507045806 | 44 | 267 | 0.0 | 0.0 | 0.00 | 0.25 | 0.00 | 85 | 1014.2 |
| 20260507045245 | 45 | 267 | 0.0 | 0.0 | 0.00 | 0.27 | 0.00 | 85 | 1014.3 |
| 20260507043806 | 45 | 267 | 0.0 | 0.0 | 0.00 | 0.30 | 0.00 | 85 | 1014.3 |
| 20260507043730 | 45 | 267 | 0.0 | 0.0 | 0.00 | 0.31 | 0.00 | 85 | 1014.1 |
| 20260507041806 | 45 | 267 | 0.0 | 0.0 | 0.00 | 0.33 | 0.00 | 84 | 1014.3 |
| 20260507040804 | 46 | 267 | 0.0 | 0.0 | 0.00 | 0.34 | 0.00 | 84 | 1014.2 |
| 20260507035805 | 46 | 267 | 0.0 | 0.0 | 0.00 | 0.35 | 0.35 | 83 | 1014.2 |
| 20260507034806 | 46 | 267 | 0.0 | 1.0 | 0.00 | 0.35 | 0.35 | 83 | 1014.2 |
| 20260507033805 | 46 | 267 | 0.0 | 0.0 | 0.00 | 0.36 | 0.35 | 82 | 1014.3 |
| 20260507032804 | 47 | 267 | 0.0 | 0.0 | 0.00 | 0.36 | 0.35 | 81 | 1014.2 |
| 20260507031804 | 47 | 267 | 0.0 | 0.0 | 0.00 | 0.36 | 0.35 | 81 | 1014.3 |
| 20260507030804 | 47 | 267 | 0.0 | 0.0 | 0.00 | 0.36 | 0.35 | 80 | 1014.4 |
| 20260507025802 | 48 | 267 | 0.0 | 0.0 | 0.00 | 0.36 | 0.35 | 79 | 1014.4 |
| 20260507024801 | 48 | 267 | 0.0 | 0.0 | 0.00 | 0.36 | 0.35 | 79 | 1014.4 |
| 20260507023759 | 49 | 267 | 0.0 | 0.0 | 0.00 | 0.37 | 0.35 | 78 | 1014.3 |
| 20260507022800 | 49 | 267 | 0.0 | 0.0 | 0.00 | 0.37 | 0.35 | 77 | 1014.2 |
| 20260507021803 | 49 | 267 | 0.0 | 0.0 | 0.00 | 0.37 | 0.35 | 76 | 1014.2 |
| 20260507020803 | 50 | 267 | 0.0 | 0.0 | 0.00 | 0.37 | 0.35 | 75 | 1014.2 |
| 20260507015803 | 51 | 267 | 0.0 | 0.0 | 0.00 | 0.38 | 0.35 | 74 | 1014.1 |
| 20260507014801 | 51 | 267 | 0.0 | 0.0 | 0.00 | 0.39 | 0.35 | 73 | 1014.2 |
| 20260507014243 | 51 | 267 | 0.0 | 0.0 | 0.00 | 0.40 | 0.35 | 73 | 1014.0 |
| 20260507012757 | 52 | 267 | 0.0 | 0.0 | 0.00 | 0.40 | 0.35 | 72 | 1013.4 |
| 20260507011758 | 53 | 267 | 0.0 | 0.0 | 0.00 | 0.41 | 0.35 | 71 | 1013.4 |
| 20260507011241 | 54 | 267 | 0.0 | 0.0 | 0.00 | 0.43 | 0.35 | 68 | 1013.3 |
| 20260507005803 | 54 | 267 | 0.0 | 0.0 | 0.00 | 0.48 | 0.35 | 67 | 1013.4 |
| 20260507004758 | 55 | 267 | 0.0 | 0.0 | 0.00 | 0.50 | 0.35 | 65 | 1013.3 |
| 20260507003754 | 56 | 267 | 0.0 | 1.0 | 0.00 | 0.51 | 0.35 | 62 | 1013.3 |
| 20260507002751 | 56 | 267 | 0.0 | 3.0 | 0.00 | 0.51 | 0.35 | 61 | 1013.1 |
| 20260507001753 | 56 | 267 | 1.0 | 3.0 | 0.00 | 0.51 | 0.35 | 59 | 1013.0 |
| 20260507000755 | 57 | 318 | 2.0 | 6.0 | 0.00 | 0.51 | 0.35 | 57 | 1013.0 |
| 20260506235751 | 57 | 310 | 3.0 | 9.0 | 0.00 | 0.51 | 0.35 | 56 | 1012.9 |
| 20260506234751 | 58 | 0 | 2.0 | 5.0 | 0.00 | 0.52 | 0.35 | 55 | 1012.6 |
| 20260506233749 | 57 | 296 | 2.0 | 7.0 | 0.00 | 0.52 | 0.35 | 55 | 1012.7 |
| 20260506232750 | 58 | 276 | 3.0 | 10.0 | 0.00 | 0.53 | 0.35 | 55 | 1012.5 |
| 20260506231749 | 58 | 319 | 4.0 | 9.0 | 0.00 | 0.53 | 0.35 | 56 | 1012.3 |
| 20260506230751 | 58 | 335 | 3.0 | 11.0 | 0.00 | 0.53 | 0.35 | 55 | 1012.2 |
| 20260506225750 | 58 | 17 | 2.0 | 8.0 | 0.00 | 0.53 | 0.35 | 55 | 1012.4 |
| 20260506224751 | 58 | 277 | 2.0 | 9.0 | 0.00 | 0.53 | 0.35 | 55 | 1012.4 |
| 20260506223746 | 58 | 309 | 1.0 | 5.0 | 0.00 | 0.53 | 0.35 | 55 | 1012.5 |
| 20260506222747 | 58 | 320 | 3.0 | 8.0 | 0.00 | 0.53 | 0.35 | 54 | 1012.8 |
| 20260506221746 | 58 | 296 | 2.0 | 9.0 | 0.00 | 0.53 | 0.35 | 54 | 1012.9 |
| 20260506220748 | 58 | 282 | 3.0 | 9.0 | 0.00 | 0.53 | 0.35 | 53 | 1013.0 |
| 20260506215747 | 58 | 291 | 3.0 | 11.0 | 0.00 | 0.53 | 0.35 | 53 | 1012.9 |
| 20260506214749 | 58 | 312 | 3.0 | 9.0 | 0.00 | 0.54 | 0.35 | 54 | 1013.0 |
| 20260506213746 | 58 | 256 | 4.0 | 12.0 | 0.00 | 0.54 | 0.35 | 54 | 1012.8 |
| 20260506212744 | 58 | 288 | 3.0 | 10.0 | 0.00 | 0.54 | 0.35 | 54 | 1012.8 |
| 20260506211744 | 58 | 306 | 2.0 | 8.0 | 0.00 | 0.54 | 0.35 | 54 | 1012.8 |
| 20260506210746 | 59 | 250 | 2.0 | 7.0 | 0.00 | 0.55 | 0.35 | 54 | 1012.3 |
| 20260506205740 | 59 | 58 | 2.0 | 9.0 | 0.00 | 0.56 | 0.35 | 53 | 1012.2 |
| 20260506204739 | 59 | 306 | 2.0 | 7.0 | 0.00 | 0.57 | 0.35 | 53 | 1012.2 |
| 20260506203740 | 59 | 323 | 3.0 | 9.0 | 0.00 | 0.59 | 0.35 | 52 | 1012.3 |
| 20260506203701 | 58 | 5 | 3.0 | 10.0 | 0.00 | 0.60 | 0.35 | 51 | 1012.5 |
| 20260506201738 | 58 | 295 | 3.0 | 10.0 | 0.00 | 0.61 | 0.35 | 51 | 1012.5 |
| 20260506201704 | 58 | 293 | 3.0 | 9.0 | 0.00 | 0.61 | 0.35 | 52 | 1012.6 |
| 20260506200235 | 58 | 342 | 2.0 | 9.0 | 0.00 | 0.63 | 0.35 | 52 | 1012.6 |
| 20260506195216 | 58 | 5 | 3.0 | 10.0 | 0.00 | 0.64 | 0.35 | 51 | 1012.5 |
| 20260506193734 | 58 | 333 | 3.0 | 10.0 | 0.00 | 0.67 | 0.35 | 51 | 1012.5 |
| 20260506192733 | 59 | 265 | 3.0 | 12.0 | 0.00 | 0.67 | 0.35 | 52 | 1012.2 |
| 20260506191734 | 60 | 339 | 3.0 | 12.0 | 0.00 | 0.67 | 0.35 | 54 | 1012.2 |
| 20260506190733 | 59 | 323 | 4.0 | 12.0 | 0.00 | 0.67 | 0.35 | 53 | 1012.2 |
| 20260506185731 | 59 | 292 | 2.0 | 10.0 | 0.00 | 0.67 | 0.35 | 51 | 1012.0 |
| 20260506184729 | 59 | 267 | 3.0 | 12.0 | 0.00 | 0.67 | 0.35 | 53 | 1012.1 |
| 20260506183728 | 60 | 275 | 2.0 | 11.0 | 0.00 | 0.67 | 0.35 | 53 | 1012.0 |
| 20260506182729 | 60 | 17 | 2.0 | 9.0 | 0.00 | 0.67 | 0.35 | 55 | 1011.9 |
| 20260506181729 | 59 | 255 | 2.0 | 13.0 | 0.00 | 0.67 | 0.35 | 56 | 1012.1 |
| 20260506180730 | 58 | 230 | 2.0 | 9.0 | 0.00 | 0.67 | 0.35 | 54 | 1012.1 |
| 20260506175728 | 58 | 272 | 2.0 | 10.0 | 0.00 | 0.67 | 0.35 | 55 | 1012.2 |
| 20260506174730 | 58 | 29 | 2.0 | 11.0 | 0.00 | 0.67 | 0.35 | 54 | 1012.4 |
| 20260506173727 | 58 | 289 | 2.0 | 8.0 | 0.00 | 0.67 | 0.35 | 56 | 1012.3 |
| 20260506172726 | 56 | 295 | 3.0 | 11.0 | 0.00 | 0.67 | 0.35 | 55 | 1012.4 |
| 20260506171726 | 57 | 292 | 2.0 | 10.0 | 0.00 | 0.67 | 0.35 | 54 | 1012.5 |
| 20260506170727 | 56 | 269 | 2.0 | 13.0 | 0.00 | 0.67 | 0.35 | 55 | 1012.7 |
| 20260506165726 | 56 | 355 | 4.0 | 12.0 | 0.00 | 0.67 | 0.35 | 57 | 1012.6 |
| 20260506164726 | 56 | 269 | 3.0 | 12.0 | 0.00 | 0.67 | 0.35 | 56 | 1012.7 |
| 20260506163727 | 57 | 321 | 2.0 | 10.0 | 0.00 | 0.67 | 0.35 | 57 | 1012.6 |
| 20260506163210 | 56 | 344 | 3.0 | 11.0 | 0.00 | 0.67 | 0.35 | 59 | 1012.6 |
| 20260506161726 | 56 | 277 | 3.0 | 10.0 | 0.00 | 0.67 | 0.35 | 57 | 1012.8 |
| 20260506160727 | 55 | 321 | 3.0 | 13.0 | 0.00 | 0.67 | 0.35 | 58 | 1012.6 |
| 20260506155727 | 55 | 306 | 4.0 | 10.0 | 0.00 | 0.67 | 0.35 | 61 | 1012.4 |
| 20260506155204 | 54 | 341 | 3.0 | 11.0 | 0.00 | 0.67 | 0.35 | 61 | 1012.4 |
| 20260506153726 | 54 | 326 | 2.0 | 12.0 | 0.00 | 0.67 | 0.35 | 64 | 1012.3 |
| 20260506152727 | 53 | 329 | 2.0 | 8.0 | 0.00 | 0.67 | 0.35 | 65 | 1012.6 |
| 20260506151726 | 53 | 12 | 3.0 | 8.0 | 0.00 | 0.67 | 0.35 | 66 | 1012.5 |
| 20260506151211 | 52 | 305 | 3.0 | 9.0 | 0.00 | 0.67 | 0.35 | 67 | 1012.2 |
| 20260506145726 | 51 | 22 | 3.0 | 8.0 | 0.00 | 0.68 | 0.35 | 70 | 1012.2 |
| 20260506144727 | 52 | 351 | 2.0 | 11.0 | 0.00 | 0.68 | 0.35 | 74 | 1011.8 |
| 20260506143727 | 51 | 306 | 3.0 | 11.0 | 0.00 | 0.68 | 0.35 | 73 | 1011.6 |
| 20260506142726 | 50 | 332 | 3.0 | 10.0 | 0.00 | 0.68 | 0.35 | 74 | 1011.4 |
| 20260506141727 | 50 | 306 | 3.0 | 11.0 | 0.00 | 0.68 | 0.35 | 75 | 1011.5 |
| 20260506140722 | 50 | 319 | 3.0 | 11.0 | 0.00 | 0.68 | 0.35 | 77 | 1011.6 |
| 20260506140649 | 50 | 332 | 4.0 | 11.0 | 0.00 | 0.68 | 0.35 | 77 | 1011.6 |
| 20260506134722 | 49 | 328 | 4.0 | 11.0 | 0.00 | 0.68 | 0.35 | 77 | 1011.4 |
| 20260506134211 | 49 | 344 | 3.0 | 13.0 | 0.00 | 0.68 | 0.35 | 79 | 1011.3 |
| 20260506132723 | 48 | 317 | 3.0 | 9.0 | 0.00 | 0.68 | 0.35 | 80 | 1011.4 |
| 20260506131722 | 48 | 342 | 4.0 | 12.0 | 0.00 | 0.68 | 0.35 | 80 | 1011.1 |
| 20260506130723 | 47 | 323 | 3.0 | 9.0 | 0.00 | 0.68 | 0.35 | 82 | 1010.9 |
| 20260506125716 | 47 | 332 | 3.0 | 8.0 | 0.00 | 0.68 | 0.35 | 82 | 1011.1 |
| 20260506125208 | 47 | 329 | 3.0 | 9.0 | 0.00 | 0.68 | 0.35 | 83 | 1011.0 |
| 20260506123714 | 47 | 306 | 4.0 | 10.0 | 0.00 | 0.68 | 0.35 | 83 | 1011.0 |
| 20260506123203 | 46 | 305 | 4.0 | 10.0 | 0.00 | 0.68 | 0.35 | 85 | 1010.9 |
| 20260506122156 | 46 | 306 | 2.0 | 8.0 | 0.00 | 0.68 | 0.35 | 86 | 1010.8 |
| 20260506120716 | 46 | 344 | 3.0 | 10.0 | 0.00 | 0.68 | 0.35 | 87 | 1010.5 |
| 20260506115713 | 46 | 313 | 2.0 | 5.0 | 0.00 | 0.68 | 0.35 | 88 | 1010.1 |
| 20260506115159 | 45 | 227 | 2.0 | 4.0 | 0.00 | 0.68 | 0.35 | 88 | 1009.7 |